Time;durP1;ratioP1;P1;durP2;ratioP2;P2;SDS_P1;SDS_P2;PMS_P1;PMS_P2;Temp;Humidity;BMP_temperature;BMP_pressure;BME280_temperature;BME280_humidity;BME280_pressure;Samples;Min_cycle;Max_cycle;Signal;HPM_P1;HPM_P2
2021/08/09 00:01:33;;;;;;;1.90;1.80;;;15.50;99.90;;;;;;5095286;28;20439;-67
2021/08/09 00:03:58;;;;;;;2.60;2.40;;;15.50;99.90;;;;;;5095539;28;20408;-69
2021/08/09 00:06:24;;;;;;;2.97;2.33;;;15.50;99.90;;;;;;5095633;28;20169;-70
2021/08/09 00:08:51;;;;;;;6.33;2.43;;;15.40;99.90;;;;;;5094733;28;20208;-69
2021/08/09 00:11:17;;;;;;;3.10;2.20;;;15.30;99.90;;;;;;5094776;28;20729;-70
2021/08/09 00:13:42;;;;;;;3.10;2.03;;;15.30;99.90;;;;;;5094577;28;20400;-70
2021/08/09 00:16:08;;;;;;;2.63;1.90;;;15.20;99.90;;;;;;5094579;28;20751;-70
2021/08/09 00:18:33;;;;;;;4.63;2.67;;;15.20;99.90;;;;;;5093324;28;20169;-70
2021/08/09 00:20:59;;;;;;;3.90;2.40;;;15.20;99.90;;;;;;5094800;28;20649;-70
2021/08/09 00:23:24;;;;;;;2.30;2.10;;;15.20;99.90;;;;;;5094726;28;20163;-70
2021/08/09 00:25:50;;;;;;;2.47;2.17;;;15.10;99.90;;;;;;5094612;28;20175;-70
2021/08/09 00:28:15;;;;;;;2.43;1.90;;;15.10;99.90;;;;;;5094324;28;20189;-69
2021/08/09 00:30:41;;;;;;;2.20;2.00;;;15.00;99.90;;;;;;5093576;28;20197;-70
2021/08/09 00:33:06;;;;;;;2.17;1.97;;;14.90;99.90;;;;;;5094070;28;20249;-70
2021/08/09 00:35:32;;;;;;;4.23;2.37;;;15.00;99.90;;;;;;5094482;28;20633;-70
2021/08/09 00:37:57;;;;;;;2.60;2.33;;;15.00;99.90;;;;;;5094288;28;20173;-70
2021/08/09 00:40:23;;;;;;;2.83;2.17;;;14.90;99.90;;;;;;5094160;28;20166;-69
2021/08/09 00:42:48;;;;;;;3.77;2.30;;;14.80;99.90;;;;;;5094278;28;20162;-70
2021/08/09 00:45:14;;;;;;;3.77;2.30;;;14.80;99.90;;;;;;5094007;28;20250;-69
2021/08/09 00:47:39;;;;;;;3.13;1.93;;;14.70;99.90;;;;;;5093979;28;20299;-69
2021/08/09 00:50:05;;;;;;;2.43;2.23;;;14.70;99.90;;;;;;5094233;28;20703;-70
2021/08/09 00:52:31;;;;;;;3.00;2.30;;;14.60;99.90;;;;;;5094021;28;20190;-70
2021/08/09 00:54:57;;;;;;;3.40;2.30;;;14.60;99.90;;;;;;5094001;28;20959;-70
2021/08/09 00:57:23;;;;;;;1.90;1.77;;;14.60;99.90;;;;;;5093905;28;20693;-70
2021/08/09 00:59:48;;;;;;;3.27;2.40;;;14.60;99.90;;;;;;5093677;28;20256;-70
2021/08/09 01:02:13;;;;;;;3.20;2.10;;;14.70;99.90;;;;;;5093661;28;20514;-70
2021/08/09 01:04:39;;;;;;;3.33;2.47;;;14.60;99.90;;;;;;5094058;28;20256;-70
2021/08/09 01:07:06;;;;;;;2.90;2.50;;;14.50;99.90;;;;;;5093489;28;20170;-70
2021/08/09 01:09:49;;;;;;;3.67;1.93;;;14.40;99.90;;;;;;5093530;28;20231;-70
2021/08/09 01:12:41;;;;;;;2.57;1.90;;;14.40;99.90;;;;;;5093074;28;20427;-70
2021/08/09 01:15:07;;;;;;;2.97;2.10;;;14.40;99.90;;;;;;5093776;28;20399;-70
2021/08/09 01:17:37;;;;;;;4.17;2.20;;;14.40;99.90;;;;;;5093249;28;20790;-70
2021/08/09 01:20:09;;;;;;;4.13;2.43;;;14.40;99.90;;;;;;5093358;28;20170;-70
2021/08/09 01:23:12;;;;;;;3.60;2.17;;;14.30;99.90;;;;;;5092833;28;20983;-69
2021/08/09 01:25:50;;;;;;;2.93;2.63;;;14.40;99.90;;;;;;5093129;28;20406;-69
2021/08/09 01:28:18;;;;;;;2.67;2.00;;;14.40;99.90;;;;;;5093047;28;20471;-69
2021/08/09 01:30:46;;;;;;;6.43;2.10;;;14.40;99.90;;;;;;5093223;28;20502;-69
2021/08/09 01:33:12;;;;;;;3.07;2.10;;;14.40;99.90;;;;;;5092853;28;20402;-69
2021/08/09 01:35:38;;;;;;;2.40;1.80;;;14.30;99.90;;;;;;5093226;28;20408;-68
2021/08/09 01:38:05;;;;;;;2.90;2.37;;;14.20;99.90;;;;;;5093147;28;20445;-69
2021/08/09 01:40:32;;;;;;;2.37;1.83;;;14.20;99.90;;;;;;5091868;28;20958;-69
2021/08/09 01:42:59;;;;;;;2.87;1.97;;;14.20;99.90;;;;;;5089569;28;20906;-70
2021/08/09 01:45:25;;;;;;;2.53;2.33;;;14.20;99.90;;;;;;5090633;28;20775;-69
2021/08/09 01:47:52;;;;;;;2.00;1.80;;;14.20;99.90;;;;;;5093006;28;20459;-69
2021/08/09 01:50:18;;;;;;;2.60;2.40;;;14.10;99.90;;;;;;5092976;28;20161;-69
2021/08/09 01:52:44;;;;;;;2.00;1.90;;;14.20;99.90;;;;;;5092673;28;20407;-69
2021/08/09 01:55:12;;;;;;;4.23;2.57;;;14.10;99.90;;;;;;5092717;28;20231;-70
2021/08/09 01:57:38;;;;;;;3.43;2.07;;;14.10;99.90;;;;;;5092312;28;20399;-70
2021/08/09 02:00:10;;;;;;;2.97;1.90;;;14.10;99.90;;;;;;5092917;28;20403;-69
2021/08/09 02:02:35;;;;;;;3.07;2.60;;;14.10;99.90;;;;;;5092490;28;20411;-69
2021/08/09 02:05:10;;;;;;;2.37;1.87;;;14.00;99.90;;;;;;5068518;28;20538;-69
2021/08/09 02:07:42;;;;;;;2.17;1.90;;;14.00;99.90;;;;;;5068462;28;20429;-69
2021/08/09 02:10:10;;;;;;;1.90;1.80;;;14.00;99.90;;;;;;5068349;28;20476;-69
2021/08/09 02:12:57;;;;;;;2.03;1.93;;;14.10;99.90;;;;;;5068394;28;20412;-68
2021/08/09 02:15:39;;;;;;;2.90;2.10;;;14.00;99.90;;;;;;5067196;28;20397;-70
2021/08/09 02:18:14;;;;;;;1.90;1.80;;;13.90;99.90;;;;;;5068326;28;20405;-69
2021/08/09 02:20:42;;;;;;;2.60;1.90;;;14.00;99.90;;;;;;5068047;28;20416;-69
2021/08/09 02:23:12;;;;;;;2.13;1.93;;;14.00;99.90;;;;;;5068010;28;20959;-69
2021/08/09 02:25:39;;;;;;;2.60;1.83;;;13.90;99.90;;;;;;5068513;28;20433;-69
2021/08/09 02:28:14;;;;;;;3.40;2.03;;;14.00;99.90;;;;;;5068031;28;20409;-69
2021/08/09 02:30:50;;;;;;;4.00;1.90;;;14.00;99.90;;;;;;5068248;28;20424;-69
2021/08/09 02:33:22;;;;;;;2.13;2.00;;;14.10;99.90;;;;;;5066867;28;20430;-69
2021/08/09 02:35:48;;;;;;;2.33;1.97;;;13.90;99.90;;;;;;5068162;28;20412;-69
2021/08/09 02:38:14;;;;;;;2.70;2.50;;;13.90;99.90;;;;;;5068130;28;20462;-69
2021/08/09 02:40:41;;;;;;;2.50;1.80;;;14.00;99.90;;;;;;5067848;28;20935;-68
2021/08/09 02:43:08;;;;;;;4.10;2.50;;;14.10;99.90;;;;;;5068249;28;20529;-69
2021/08/09 02:45:35;;;;;;;2.10;1.87;;;14.00;99.90;;;;;;5067626;28;20415;-69
2021/08/09 02:48:01;;;;;;;4.43;2.50;;;14.00;99.90;;;;;;5067769;28;20862;-69
2021/08/09 02:50:27;;;;;;;2.50;2.10;;;13.90;99.90;;;;;;5067763;28;20562;-69
2021/08/09 02:52:53;;;;;;;4.67;2.57;;;13.90;99.90;;;;;;5067776;28;20413;-69
2021/08/09 02:55:20;;;;;;;2.33;1.67;;;13.90;99.90;;;;;;5067634;28;20440;-69
2021/08/09 02:57:47;;;;;;;2.70;2.20;;;13.80;99.90;;;;;;5067594;28;20411;-70
2021/08/09 03:00:13;;;;;;;1.77;1.67;;;13.80;99.90;;;;;;5068006;28;20409;-69
2021/08/09 03:02:42;;;;;;;3.27;1.90;;;13.80;99.90;;;;;;5067751;28;20462;-69
2021/08/09 03:05:08;;;;;;;2.40;2.20;;;13.80;99.90;;;;;;5067688;28;20400;-69
2021/08/09 03:07:38;;;;;;;2.27;2.10;;;13.80;99.90;;;;;;5067576;28;20395;-69
2021/08/09 03:10:11;;;;;;;3.03;1.70;;;13.70;99.90;;;;;;5067815;28;20504;-70
2021/08/09 03:12:38;;;;;;;2.00;1.80;;;13.80;99.90;;;;;;5068681;28;20397;-70
2021/08/09 03:15:05;;;;;;;2.80;1.90;;;13.80;99.90;;;;;;5063571;28;20405;-69
2021/08/09 03:17:30;;;;;;;1.80;1.70;;;13.90;99.90;;;;;;5055500;28;20393;-69
2021/08/09 03:19:56;;;;;;;2.23;2.00;;;13.80;99.90;;;;;;5055214;28;20397;-69
2021/08/09 03:22:21;;;;;;;2.30;2.10;;;13.70;99.90;;;;;;5055140;28;20214;-69
2021/08/09 03:24:47;;;;;;;3.60;2.30;;;13.70;99.90;;;;;;5054992;28;20289;-69
2021/08/09 03:27:13;;;;;;;3.00;2.43;;;13.70;99.90;;;;;;5054813;28;20171;-70
2021/08/09 03:29:38;;;;;;;2.40;2.20;;;13.70;99.90;;;;;;5054999;28;20171;-69
2021/08/09 03:32:04;;;;;;;1.90;1.80;;;13.80;99.90;;;;;;5052630;28;20187;-69
2021/08/09 03:34:30;;;;;;;3.47;1.97;;;13.80;99.90;;;;;;5053827;28;20179;-69
2021/08/09 03:36:55;;;;;;;2.17;1.97;;;13.70;99.90;;;;;;5052420;28;20650;-68
2021/08/09 03:39:21;;;;;;;3.43;2.13;;;13.70;99.90;;;;;;5053683;28;20171;-68
2021/08/09 03:41:46;;;;;;;2.70;1.83;;;13.70;99.90;;;;;;5053454;28;20187;-69
2021/08/09 03:44:12;;;;;;;2.93;2.10;;;13.70;99.90;;;;;;5052813;28;20592;-69
2021/08/09 03:46:38;;;;;;;2.00;1.87;;;13.70;99.90;;;;;;5053558;28;20213;-68
2021/08/09 03:49:07;;;;;;;6.20;2.40;;;13.60;99.90;;;;;;5053381;28;20626;-72
2021/08/09 03:51:37;;;;;;;3.40;1.93;;;13.60;99.90;;;;;;5053373;28;20422;-69
2021/08/09 03:54:02;;;;;;;2.73;2.53;;;13.60;99.90;;;;;;5052667;28;20455;-69
2021/08/09 03:56:28;;;;;;;4.90;2.53;;;13.60;99.90;;;;;;5053049;28;20418;-71
2021/08/09 03:58:53;;;;;;;1.93;1.83;;;13.50;99.90;;;;;;5053423;28;20262;-70
2021/08/09 04:01:19;;;;;;;3.63;2.43;;;13.70;99.90;;;;;;5053516;28;20569;-70
2021/08/09 04:03:44;;;;;;;5.53;2.20;;;13.70;99.90;;;;;;5053331;28;20204;-71
2021/08/09 04:06:10;;;;;;;6.03;1.93;;;13.70;99.90;;;;;;5053187;28;20182;-70
2021/08/09 04:08:39;;;;;;;3.03;2.23;;;13.70;99.90;;;;;;5053049;28;20174;-68
2021/08/09 04:11:05;;;;;;;2.60;2.10;;;13.70;99.90;;;;;;5052840;28;20582;-70
2021/08/09 04:13:30;;;;;;;2.60;2.37;;;13.60;99.90;;;;;;5053155;28;20409;-69
2021/08/09 04:15:56;;;;;;;3.47;2.20;;;13.70;99.90;;;;;;5053001;28;20175;-69
2021/08/09 04:18:21;;;;;;;3.13;2.47;;;13.70;99.90;;;;;;5052924;28;20179;-69
2021/08/09 04:20:47;;;;;;;3.10;2.50;;;13.70;99.90;;;;;;5052799;28;20683;-69
2021/08/09 04:23:12;;;;;;;2.60;2.40;;;13.90;99.90;;;;;;5052591;28;20190;-68
2021/08/09 04:25:37;;;;;;;3.20;2.67;;;13.90;99.90;;;;;;5052596;28;20213;-69
2021/08/09 04:28:03;;;;;;;2.80;2.60;;;13.90;99.90;;;;;;5051653;28;20194;-69
2021/08/09 04:30:29;;;;;;;2.83;2.63;;;14.00;99.90;;;;;;5052826;28;20174;-69
2021/08/09 04:32:54;;;;;;;3.47;2.70;;;14.00;99.90;;;;;;5052448;28;20185;-70
2021/08/09 04:35:20;;;;;;;3.50;2.50;;;14.00;99.90;;;;;;5052627;28;20167;-71
2021/08/09 04:37:45;;;;;;;3.83;2.60;;;14.00;99.90;;;;;;5052891;28;20163;-70
2021/08/09 04:40:12;;;;;;;3.17;2.97;;;14.00;99.90;;;;;;5052374;28;20170;-69
2021/08/09 04:42:38;;;;;;;4.57;2.27;;;14.00;99.90;;;;;;5052790;28;20163;-69
2021/08/09 04:45:04;;;;;;;2.13;1.83;;;14.10;99.90;;;;;;5052492;28;20503;-69
2021/08/09 04:47:29;;;;;;;3.43;3.13;;;14.10;99.90;;;;;;5052586;28;20408;-69
2021/08/09 04:49:55;;;;;;;7.57;2.80;;;14.10;99.90;;;;;;5052397;28;20394;-69
2021/08/09 04:52:20;;;;;;;4.13;3.20;;;14.10;99.90;;;;;;5051267;28;20221;-68
2021/08/09 04:54:46;;;;;;;2.50;2.30;;;14.20;99.90;;;;;;5052284;28;20258;-69
2021/08/09 04:57:11;;;;;;;2.70;2.20;;;14.20;99.90;;;;;;5052198;28;20604;-69
2021/08/09 04:59:37;;;;;;;2.27;2.07;;;14.20;99.90;;;;;;5052477;28;20202;-68
2021/08/09 05:02:03;;;;;;;2.63;2.40;;;14.30;99.90;;;;;;5052643;28;20210;-69
2021/08/09 05:04:28;;;;;;;4.30;3.07;;;14.30;99.90;;;;;;5052307;28;20665;-70
2021/08/09 05:06:54;;;;;;;2.70;2.50;;;14.40;99.90;;;;;;5052227;28;20182;-69
2021/08/09 05:09:19;;;;;;;2.47;2.27;;;14.50;99.90;;;;;;5052366;28;20178;-69
2021/08/09 05:11:44;;;;;;;2.60;2.40;;;14.50;99.90;;;;;;5053024;28;20544;-69
2021/08/09 05:14:10;;;;;;;2.40;2.20;;;14.60;99.90;;;;;;5052479;28;20171;-69
2021/08/09 05:16:37;;;;;;;5.27;2.23;;;14.70;99.90;;;;;;5052084;28;20174;-70
2021/08/09 05:19:04;;;;;;;3.73;2.43;;;14.70;99.90;;;;;;5052147;28;20425;-70
2021/08/09 05:21:30;;;;;;;3.20;2.50;;;14.90;99.90;;;;;;5051848;28;20441;-70
2021/08/09 05:23:59;;;;;;;3.70;2.80;;;15.00;99.90;;;;;;5051721;28;20452;-70
2021/08/09 05:26:25;;;;;;;3.93;1.93;;;15.30;99.90;;;;;;5052082;28;20411;-69
2021/08/09 05:28:50;;;;;;;3.23;2.20;;;15.70;99.90;;;;;;5051770;28;20471;-69
2021/08/09 05:31:16;;;;;;;2.17;1.70;;;16.00;99.90;;;;;;5051887;28;20191;-68
2021/08/09 05:33:42;;;;;;;2.77;1.90;;;16.20;99.90;;;;;;5051865;28;20210;-68
2021/08/09 05:36:08;;;;;;;2.13;1.90;;;16.40;99.90;;;;;;5051928;28;20171;-68
2021/08/09 05:38:34;;;;;;;1.90;1.53;;;16.40;99.90;;;;;;5051119;28;20407;-69
2021/08/09 05:41:01;;;;;;;2.77;2.20;;;16.80;99.90;;;;;;5051860;28;20194;-68
2021/08/09 05:43:27;;;;;;;2.20;2.00;;;17.00;99.90;;;;;;5051615;28;20213;-68
2021/08/09 05:45:52;;;;;;;1.80;1.60;;;17.50;99.90;;;;;;5052074;28;20402;-69
2021/08/09 05:48:18;;;;;;;2.10;1.73;;;18.00;99.90;;;;;;5050183;28;20176;-69
2021/08/09 05:50:43;;;;;;;2.90;1.70;;;18.10;99.90;;;;;;5051636;28;20183;-67
2021/08/09 05:53:08;;;;;;;3.10;1.67;;;18.50;99.90;;;;;;5051445;28;20175;-68
2021/08/09 05:55:34;;;;;;;3.33;1.87;;;18.90;99.90;;;;;;5051600;28;20218;-68
2021/08/09 05:58:00;;;;;;;2.00;1.80;;;19.30;99.90;;;;;;5051496;28;20254;-68
2021/08/09 06:00:25;;;;;;;2.90;1.87;;;19.30;99.90;;;;;;5051410;28;20169;-68
2021/08/09 06:02:50;;;;;;;2.80;2.00;;;19.40;99.90;;;;;;5051278;28;20172;-68
2021/08/09 06:05:16;;;;;;;2.73;1.80;;;19.50;99.90;;;;;;5051814;28;20243;-68
2021/08/09 06:07:41;;;;;;;1.87;1.73;;;19.20;99.90;;;;;;5051210;28;20240;-68
2021/08/09 06:10:08;;;;;;;3.53;2.60;;;19.20;99.90;;;;;;5051404;28;20168;-67
2021/08/09 06:12:34;;;;;;;4.00;2.43;;;19.10;99.90;;;;;;5051305;28;20198;-68
2021/08/09 06:15:00;;;;;;;2.93;1.93;;;18.70;99.90;;;;;;5051612;28;20411;-68
2021/08/09 06:17:25;;;;;;;2.67;2.40;;;19.40;99.90;;;;;;5051221;28;20403;-68
2021/08/09 06:19:51;;;;;;;2.90;1.80;;;20.00;99.90;;;;;;5051476;28;20657;-68
2021/08/09 06:22:16;;;;;;;2.77;2.00;;;20.70;99.90;;;;;;5051013;28;20196;-68
2021/08/09 06:24:42;;;;;;;2.80;2.40;;;20.80;99.90;;;;;;5051774;28;20213;-68
2021/08/09 06:27:08;;;;;;;2.30;2.10;;;21.50;99.90;;;;;;5051574;28;20515;-68
2021/08/09 06:29:34;;;;;;;3.07;1.50;;;21.10;99.90;;;;;;5051788;28;20178;-68
2021/08/09 06:31:59;;;;;;;2.33;1.30;;;20.90;99.90;;;;;;5051732;28;20192;-68
2021/08/09 06:34:25;;;;;;;1.80;1.40;;;22.10;99.90;;;;;;5052011;28;20684;-68
2021/08/09 06:36:51;;;;;;;2.37;1.60;;;21.80;99.90;;;;;;5051620;28;20226;-68
2021/08/09 06:39:20;;;;;;;5.80;2.33;;;21.90;99.90;;;;;;5050271;28;20896;-68
2021/08/09 06:41:47;;;;;;;1.80;1.70;;;20.80;99.90;;;;;;5050626;28;20200;-68
2021/08/09 06:44:13;;;;;;;3.73;1.83;;;19.70;99.90;;;;;;5051616;28;20486;-67
2021/08/09 06:46:41;;;;;;;1.90;1.70;;;19.80;99.90;;;;;;5050409;28;20468;-68
2021/08/09 06:49:07;;;;;;;1.87;1.30;;;19.70;99.90;;;;;;5051436;28;20408;-67
2021/08/09 06:51:33;;;;;;;3.70;2.10;;;20.00;99.90;;;;;;5054386;28;20422;-68
2021/08/09 06:53:59;;;;;;;2.73;1.93;;;19.90;99.90;;;;;;5055262;28;20204;-68
2021/08/09 06:56:24;;;;;;;2.33;1.40;;;20.10;99.90;;;;;;5054276;28;20176;-69
2021/08/09 06:58:50;;;;;;;2.60;2.07;;;20.70;99.90;;;;;;5055367;28;20180;-68
2021/08/09 07:01:15;;;;;;;2.17;1.53;;;20.10;99.90;;;;;;5055230;28;20279;-68
2021/08/09 07:03:45;;;;;;;2.37;1.77;;;20.20;99.90;;;;;;5053564;28;20209;-68
2021/08/09 07:06:22;;;;;;;1.60;1.50;;;19.60;99.90;;;;;;5053653;28;20655;-68
2021/08/09 07:08:49;;;;;;;3.50;1.60;;;19.30;99.90;;;;;;5054913;28;20400;-68
2021/08/09 07:11:16;;;;;;;2.83;1.53;;;19.40;99.90;;;;;;5055203;28;20450;-68
2021/08/09 07:13:41;;;;;;;2.50;1.50;;;19.50;99.90;;;;;;5055191;28;20444;-69
2021/08/09 07:16:07;;;;;;;3.47;1.70;;;19.50;99.90;;;;;;5055036;28;20457;-69
2021/08/09 07:18:33;;;;;;;4.90;1.80;;;19.70;99.90;;;;;;5053099;28;20227;-68
2021/08/09 07:21:00;;;;;;;2.50;2.07;;;19.20;99.90;;;;;;5054767;28;20513;-68
2021/08/09 07:23:26;;;;;;;3.87;2.10;;;19.20;99.90;;;;;;5054879;28;20447;-68
2021/08/09 07:25:52;;;;;;;2.13;1.93;;;19.40;99.90;;;;;;5053886;28;20473;-68
2021/08/09 07:28:23;;;;;;;5.03;1.63;;;19.50;99.90;;;;;;5054865;28;20169;-67
2021/08/09 07:30:49;;;;;;;4.30;1.77;;;19.80;99.90;;;;;;5053820;28;20195;-68
2021/08/09 07:33:24;;;;;;;3.20;1.73;;;19.70;99.90;;;;;;5054598;28;20404;-69
2021/08/09 07:35:49;;;;;;;4.17;1.53;;;20.50;99.90;;;;;;5053758;28;20290;-68
2021/08/09 07:38:15;;;;;;;2.60;2.10;;;20.60;99.90;;;;;;5055235;28;20439;-68
2021/08/09 07:40:41;;;;;;;3.33;1.60;;;20.70;99.90;;;;;;5056649;28;20196;-69
2021/08/09 07:43:06;;;;;;;1.80;1.47;;;20.30;99.90;;;;;;5055907;28;20168;-69
2021/08/09 07:45:32;;;;;;;3.33;2.17;;;20.10;99.90;;;;;;5055894;28;20176;-69
2021/08/09 07:47:58;;;;;;;2.03;1.50;;;20.80;99.90;;;;;;5055218;28;20174;-67
2021/08/09 07:50:23;;;;;;;2.10;1.63;;;20.80;99.90;;;;;;5038697;28;20196;-68
2021/08/09 07:52:50;;;;;;;1.83;1.27;;;20.60;99.90;;;;;;5055914;28;20184;-67
2021/08/09 07:55:16;;;;;;;3.77;1.80;;;20.60;99.90;;;;;;5055129;28;20229;-69
2021/08/09 07:57:42;;;;;;;2.17;1.70;;;20.70;99.90;;;;;;5055715;28;20923;-69
2021/08/09 08:00:14;;;;;;;2.73;1.60;;;20.90;99.90;;;;;;5054197;28;20467;-68
2021/08/09 08:02:40;;;;;;;2.50;1.77;;;20.90;99.90;;;;;;5055139;28;20451;-68
2021/08/09 08:05:09;;;;;;;2.00;1.53;;;20.60;99.90;;;;;;5053728;28;20826;-68
2021/08/09 08:07:35;;;;;;;3.40;1.83;;;20.10;99.90;;;;;;5055178;28;20463;-69
2021/08/09 08:10:02;;;;;;;4.03;2.17;;;20.20;99.90;;;;;;5055100;28;20900;-68
2021/08/09 08:12:31;;;;;;;4.37;1.60;;;19.90;99.90;;;;;;5054025;28;20188;-68
2021/08/09 08:14:57;;;;;;;3.47;1.70;;;19.60;99.90;;;;;;5053269;28;20426;-69
2021/08/09 08:17:23;;;;;;;2.80;1.93;;;19.70;99.90;;;;;;5053149;28;20573;-68
2021/08/09 08:19:50;;;;;;;4.50;2.57;;;19.50;99.90;;;;;;5053783;28;20182;-68
2021/08/09 08:22:15;;;;;;;2.13;1.63;;;19.60;99.90;;;;;;5054851;28;20441;-69
2021/08/09 08:24:41;;;;;;;3.87;2.47;;;20.00;99.90;;;;;;5054254;28;20960;-68
2021/08/09 08:27:07;;;;;;;4.40;2.03;;;19.60;99.90;;;;;;5035975;28;20221;-68
2021/08/09 08:29:41;;;;;;;2.10;1.87;;;19.70;99.90;;;;;;5053937;28;20584;-68
2021/08/09 08:32:07;;;;;;;4.57;1.93;;;19.50;99.90;;;;;;5052013;28;20466;-68
2021/08/09 08:34:33;;;;;;;2.47;2.27;;;19.30;99.90;;;;;;5053955;28;20892;-68
2021/08/09 08:37:02;;;;;;;2.60;1.63;;;19.30;99.90;;;;;;5053519;28;20496;-68
2021/08/09 08:39:29;;;;;;;3.10;2.20;;;19.30;99.90;;;;;;5051880;28;20219;-68
2021/08/09 08:41:56;;;;;;;4.73;1.93;;;19.40;99.90;;;;;;5052720;28;20429;-68
2021/08/09 08:44:22;;;;;;;3.93;2.73;;;19.60;99.90;;;;;;5051854;28;20549;-68
2021/08/09 08:46:52;;;;;;;4.40;2.67;;;19.60;99.90;;;;;;5051471;28;20447;-68
2021/08/09 08:49:23;;;;;;;5.60;2.23;;;19.60;99.90;;;;;;5051621;28;20408;-68
2021/08/09 08:51:53;;;;;;;5.63;2.30;;;19.50;99.90;;;;;;5052609;28;20436;-68
2021/08/09 08:54:22;;;;;;;2.67;2.47;;;19.60;99.90;;;;;;5051350;28;20838;-68
2021/08/09 08:56:48;;;;;;;4.70;1.90;;;19.50;99.90;;;;;;5051365;28;20412;-69
2021/08/09 08:59:18;;;;;;;2.53;1.90;;;19.80;99.90;;;;;;5052495;28;20414;-69
2021/08/09 09:01:50;;;;;;;3.73;1.90;;;19.80;99.90;;;;;;5052426;28;20808;-69
2021/08/09 09:04:32;;;;;;;3.70;2.03;;;19.90;99.90;;;;;;5051399;28;20562;-69
2021/08/09 09:07:15;;;;;;;2.07;1.63;;;19.70;99.90;;;;;;5051542;28;20407;-68
2021/08/09 09:09:40;;;;;;;5.97;2.07;;;19.80;99.90;;;;;;5051331;28;20437;-67
2021/08/09 09:12:16;;;;;;;1.93;1.70;;;19.70;99.90;;;;;;5052945;28;20422;-68
2021/08/09 09:14:42;;;;;;;4.27;2.40;;;19.90;99.90;;;;;;5052157;28;20183;-68
2021/08/09 09:17:08;;;;;;;2.60;2.07;;;19.70;99.90;;;;;;5051059;28;20415;-68
2021/08/09 09:19:36;;;;;;;6.97;3.90;;;20.20;99.90;;;;;;5052663;28;20971;-69
2021/08/09 09:22:19;;;;;;;3.53;1.80;;;20.40;99.90;;;;;;5052399;28;20456;-68
2021/08/09 09:24:51;;;;;;;2.10;1.90;;;20.70;99.90;;;;;;5036066;28;20455;-69
2021/08/09 09:27:49;;;;;;;2.50;1.70;;;20.70;99.90;;;;;;5052445;28;20437;-69
2021/08/09 09:30:29;;;;;;;2.23;1.90;;;20.10;99.90;;;;;;5043392;28;20422;-68
2021/08/09 09:32:59;;;;;;;4.93;2.33;;;20.20;99.90;;;;;;5052813;28;20414;-68
2021/08/09 09:35:25;;;;;;;4.03;2.20;;;20.10;99.90;;;;;;5051067;28;20827;-69
2021/08/09 09:37:51;;;;;;;4.43;2.20;;;20.20;99.90;;;;;;5051231;28;20931;-68
2021/08/09 09:40:20;;;;;;;2.10;1.90;;;20.20;99.90;;;;;;5051077;28;20412;-68
2021/08/09 09:42:53;;;;;;;5.70;1.93;;;20.70;99.90;;;;;;5051692;28;20428;-69
2021/08/09 09:45:21;;;;;;;3.80;2.03;;;21.10;99.90;;;;;;5052300;28;20457;-68
2021/08/09 09:48:00;;;;;;;4.07;2.27;;;20.70;99.90;;;;;;5052324;28;20773;-69
2021/08/09 09:50:42;;;;;;;2.33;1.90;;;21.10;99.90;;;;;;5051252;28;20423;-69
2021/08/09 09:53:22;;;;;;;2.87;1.73;;;21.10;99.90;;;;;;5052924;28;20418;-69
2021/08/09 09:55:50;;;;;;;3.70;3.30;;;21.90;99.90;;;;;;5051156;28;20541;-69
2021/08/09 09:58:19;;;;;;;3.17;1.73;;;21.90;99.90;;;;;;5052936;28;20410;-69
2021/08/09 10:00:45;;;;;;;2.63;2.13;;;21.60;99.90;;;;;;5050642;28;20475;-69
2021/08/09 10:03:23;;;;;;;3.60;2.40;;;21.40;99.90;;;;;;5050225;28;20432;-70
2021/08/09 10:05:49;;;;;;;3.23;1.93;;;21.20;99.90;;;;;;5050706;28;20422;-69
2021/08/09 10:08:17;;;;;;;2.33;2.03;;;21.10;99.90;;;;;;5050273;28;20441;-69
2021/08/09 10:10:48;;;;;;;6.47;1.63;;;21.20;99.90;;;;;;5051909;28;20421;-69
2021/08/09 10:13:20;;;;;;;2.33;1.70;;;21.60;99.90;;;;;;5051883;28;20776;-70
2021/08/09 10:15:50;;;;;;;2.00;1.60;;;21.70;99.90;;;;;;5051663;28;20426;-68
2021/08/09 10:18:21;;;;;;;2.03;1.83;;;22.00;99.90;;;;;;5051858;28;20447;-69
2021/08/09 10:20:49;;;;;;;3.23;2.23;;;21.70;99.90;;;;;;5051486;28;20422;-71
2021/08/09 10:23:40;;;;;;;4.07;1.70;;;21.50;99.90;;;;;;5051632;28;20431;-70
2021/08/09 10:26:08;;;;;;;1.80;1.70;;;21.80;99.90;;;;;;5052883;28;20484;-71
2021/08/09 10:28:52;;;;;;;7.63;1.90;;;22.10;99.90;;;;;;5055502;28;20502;-71
2021/08/09 10:31:39;;;;;;;3.03;2.00;;;22.70;99.90;;;;;;5055524;28;20448;-70
2021/08/09 10:34:29;;;;;;;14.93;10.67;;;22.50;99.90;;;;;;5055512;28;20879;-69
2021/08/09 10:37:11;;;;;;;55.63;38.23;;;23.00;99.90;;;;;;5054951;28;20417;-70
2021/08/09 10:39:53;;;;;;;47.57;27.57;;;22.90;99.90;;;;;;5055483;28;20407;-71
2021/08/09 10:42:28;;;;;;;30.50;20.30;;;22.80;99.90;;;;;;5054995;28;20972;-69
2021/08/09 10:44:53;;;;;;;4.10;2.97;;;23.00;99.90;;;;;;5054942;28;20590;-69
2021/08/09 10:47:47;;;;;;;4.20;3.60;;;23.00;99.90;;;;;;5055427;28;20459;-70
2021/08/09 10:50:41;;;;;;;6.43;4.50;;;22.30;99.90;;;;;;5055190;28;20196;-70
2021/08/09 10:53:33;;;;;;;7.47;5.03;;;22.50;99.90;;;;;;5054299;28;20396;-69
2021/08/09 10:55:59;;;;;;;12.03;7.63;;;22.80;99.90;;;;;;5054589;28;20515;-70
2021/08/09 10:58:43;;;;;;;3.20;2.07;;;23.50;99.90;;;;;;5055073;28;20399;-70
2021/08/09 11:01:16;;;;;;;2.97;2.17;;;23.20;99.90;;;;;;5054665;28;20436;-70
2021/08/09 11:04:00;;;;;;;2.50;1.63;;;22.80;99.90;;;;;;5054592;28;20467;-70
2021/08/09 11:06:53;;;;;;;5.73;4.70;;;22.90;99.90;;;;;;5055021;28;20400;-70
2021/08/09 11:09:31;;;;;;;4.27;3.23;;;22.70;99.90;;;;;;5056618;28;20747;-70
2021/08/09 11:12:17;;;;;;;4.67;2.53;;;23.00;99.90;;;;;;5058045;28;20418;-70
2021/08/09 11:17:42;;;;;;;2.77;1.80;;;23.50;99.90;;;;;;5050589;28;20428;-70
2021/08/09 11:20:33;;;;;;;3.57;2.20;;;23.70;99.90;;;;;;5054633;28;20408;-71
2021/08/09 11:23:01;;;;;;;2.40;1.33;;;23.70;99.90;;;;;;5054761;28;20393;-70
2021/08/09 11:25:39;;;;;;;2.77;1.70;;;23.80;99.90;;;;;;5054600;28;20413;-70
2021/08/09 11:28:16;;;;;;;9.17;2.50;;;23.70;99.90;;;;;;5054375;28;20401;-70
2021/08/09 11:30:58;;;;;;;2.10;1.67;;;23.60;99.90;;;;;;5054452;28;20458;-70
2021/08/09 11:33:26;;;;;;;5.00;1.80;;;23.50;99.90;;;;;;5054383;28;20418;-70
2021/08/09 11:35:54;;;;;;;2.60;1.50;;;23.50;99.90;;;;;;5054046;28;20405;-70
2021/08/09 11:38:20;;;;;;;2.33;1.27;;;23.30;99.90;;;;;;5054292;28;20463;-69
2021/08/09 11:40:54;;;;;;;5.80;3.20;;;23.40;99.90;;;;;;5053995;28;20516;-70
2021/08/09 11:43:24;;;;;;;2.13;1.93;;;23.70;99.90;;;;;;5054131;28;20445;-70
2021/08/09 11:45:51;;;;;;;2.20;2.00;;;23.50;99.90;;;;;;5054094;28;20439;-70
2021/08/09 11:48:25;;;;;;;2.67;1.60;;;24.00;99.90;;;;;;5054163;28;20422;-70
2021/08/09 11:50:55;;;;;;;1.83;1.43;;;24.00;99.90;;;;;;5054146;28;20426;-70
2021/08/09 11:53:21;;;;;;;2.20;1.53;;;24.30;99.90;;;;;;5053917;28;20408;-70
2021/08/09 11:55:46;;;;;;;3.30;1.60;;;24.10;99.90;;;;;;5053898;28;20414;-69
2021/08/09 11:58:28;;;;;;;1.83;1.43;;;23.80;99.90;;;;;;5054484;28;20163;-70
2021/08/09 12:00:53;;;;;;;3.60;1.80;;;23.80;99.90;;;;;;5054319;28;20182;-71
2021/08/09 12:03:21;;;;;;;1.83;1.50;;;24.20;99.90;;;;;;5053723;28;20485;-70
2021/08/09 12:05:47;;;;;;;2.80;1.80;;;24.50;99.90;;;;;;5054162;28;20156;-70
2021/08/09 12:08:12;;;;;;;3.13;1.60;;;24.30;99.90;;;;;;5053964;28;20412;-70
2021/08/09 12:10:39;;;;;;;2.30;1.60;;;24.00;99.90;;;;;;5053797;28;20192;-70
2021/08/09 12:13:22;;;;;;;3.30;1.57;;;24.00;99.90;;;;;;5053555;28;20160;-70
2021/08/09 12:16:08;;;;;;;3.63;1.70;;;24.00;99.90;;;;;;5053716;28;20407;-70
2021/08/09 12:18:34;;;;;;;3.27;1.80;;;23.90;99.90;;;;;;5053781;28;20406;-70
2021/08/09 12:21:11;;;;;;;2.83;1.57;;;23.80;99.90;;;;;;5053447;28;20480;-70
2021/08/09 12:23:56;;;;;;;4.37;1.63;;;24.00;99.90;;;;;;5051951;28;20260;-70
2021/08/09 12:26:26;;;;;;;2.90;2.20;;;23.60;99.60;;;;;;5053627;28;20394;-70
2021/08/09 12:28:54;;;;;;;1.67;1.53;;;23.60;99.90;;;;;;5053110;28;20787;-70
2021/08/09 12:31:34;;;;;;;2.50;2.03;;;23.70;99.90;;;;;;5053170;28;20425;-70
2021/08/09 12:34:01;;;;;;;2.10;1.73;;;24.20;99.90;;;;;;5053188;28;20422;-70
2021/08/09 12:36:27;;;;;;;2.47;1.47;;;24.10;99.90;;;;;;5053576;28;20413;-70
2021/08/09 12:38:52;;;;;;;2.07;1.40;;;24.00;99.90;;;;;;5053001;28;20412;-70
2021/08/09 12:41:28;;;;;;;1.97;1.57;;;24.10;99.90;;;;;;5052875;28;20626;-70
2021/08/09 12:43:55;;;;;;;2.47;1.87;;;24.20;99.30;;;;;;5053259;28;20213;-70
2021/08/09 12:46:20;;;;;;;3.47;1.90;;;23.90;99.00;;;;;;5051913;28;20464;-70
2021/08/09 12:48:51;;;;;;;2.07;1.67;;;24.20;98.70;;;;;;5050813;28;20429;-70
2021/08/09 12:51:17;;;;;;;2.30;2.10;;;24.00;99.00;;;;;;5052891;28;20209;-69
2021/08/09 12:53:42;;;;;;;1.37;1.27;;;23.80;99.00;;;;;;5052863;28;20426;-69
2021/08/09 12:56:08;;;;;;;2.27;1.43;;;23.70;99.50;;;;;;5052981;28;20882;-69
2021/08/09 12:58:35;;;;;;;2.50;1.63;;;23.90;99.40;;;;;;5052967;28;20175;-69